createdAt,value
2022-10-24T00:01:43.857Z,4.10
2022-10-24T00:04:10.714Z,4.63
2022-10-24T00:06:37.525Z,4.10
2022-10-24T00:09:07.636Z,4.27
2022-10-24T00:11:34.625Z,4.63
2022-10-24T00:14:02.105Z,4.67
2022-10-24T00:16:29.156Z,4.00
2022-10-24T00:18:55.997Z,4.60
2022-10-24T00:21:27.326Z,4.60
2022-10-24T00:23:54.163Z,4.43
2022-10-24T00:26:23.232Z,3.40
2022-10-24T00:28:54.777Z,3.80
2022-10-24T00:31:21.683Z,4.07
2022-10-24T00:33:50.727Z,4.20
2022-10-24T00:36:23.669Z,4.40
2022-10-24T00:38:51.995Z,4.33
2022-10-24T00:41:36.961Z,3.90
2022-10-24T00:44:20.228Z,4.20
2022-10-24T00:47:14.599Z,3.73
2022-10-24T00:49:50.295Z,3.87
2022-10-24T00:52:23.012Z,3.77
2022-10-24T00:54:51.353Z,3.60
2022-10-24T00:57:27.024Z,4.20
2022-10-24T01:00:04.827Z,3.70
2022-10-24T01:02:32.143Z,3.77
2022-10-24T01:04:59.830Z,4.20
2022-10-24T01:07:40.616Z,4.37
2022-10-24T01:11:08.167Z,4.10
2022-10-24T01:13:54.306Z,3.40
2022-10-24T01:16:46.483Z,4.30
2022-10-24T01:19:46.998Z,3.30
2022-10-24T01:22:23.188Z,3.70
2022-10-24T01:25:04.889Z,3.83
2022-10-24T01:28:05.341Z,4.20
2022-10-24T01:30:48.809Z,3.67
2022-10-24T01:33:33.938Z,3.90
2022-10-24T01:36:11.260Z,3.70
2022-10-24T01:38:46.359Z,3.20
2022-10-24T01:41:21.044Z,2.90
2022-10-24T01:44:03.199Z,3.07
2022-10-24T01:46:39.573Z,3.00
2022-10-24T01:49:16.133Z,3.60
2022-10-24T01:51:44.204Z,3.50
2022-10-24T01:54:12.399Z,3.60
2022-10-24T01:56:39.346Z,3.20
2022-10-24T01:59:29.132Z,3.53
2022-10-24T02:02:19.395Z,3.50
2022-10-24T02:05:21.208Z,4.00
2022-10-24T02:07:57.876Z,3.80
2022-10-24T02:10:33.141Z,3.33
2022-10-24T02:13:15.717Z,4.13
2022-10-24T02:15:54.032Z,3.63
2022-10-24T02:18:23.425Z,3.50
2022-10-24T02:21:50.554Z,3.77
2022-10-24T02:24:29.562Z,3.20
2022-10-24T02:27:10.428Z,3.47
2022-10-24T02:29:44.593Z,3.73
2022-10-24T02:32:27.022Z,3.57
2022-10-24T02:34:57.003Z,3.93
2022-10-24T02:37:26.072Z,4.23
2022-10-24T02:39:57.738Z,4.57
2022-10-24T02:45:03.454Z,4.10
2022-10-24T02:47:31.630Z,4.47
2022-10-24T02:50:00.714Z,3.90
2022-10-24T02:52:30.274Z,3.90
2022-10-24T02:54:57.331Z,3.90
2022-10-24T02:57:25.151Z,4.53
2022-10-24T02:59:52.187Z,4.33
2022-10-24T03:02:19.346Z,4.27
2022-10-24T03:04:49.345Z,3.93
2022-10-24T03:07:16.538Z,3.90
2022-10-24T03:09:45.713Z,3.93
2022-10-24T03:12:16.543Z,4.83
2022-10-24T03:14:47.381Z,4.50
2022-10-24T03:17:14.211Z,4.60
2022-10-24T03:19:45.128Z,3.90
2022-10-24T03:22:14.285Z,3.97
2022-10-24T03:24:44.278Z,3.77
2022-10-24T03:27:21.398Z,4.40
2022-10-24T03:29:51.256Z,4.20
2022-10-24T03:32:18.085Z,4.33
2022-10-24T03:34:47.444Z,4.57
2022-10-24T03:37:17.241Z,4.60
2022-10-24T03:39:46.585Z,4.70
2022-10-24T03:42:16.473Z,4.70
2022-10-24T03:44:43.334Z,4.30
2022-10-24T03:47:10.396Z,4.37
2022-10-24T03:49:37.259Z,4.40
2022-10-24T03:52:04.895Z,4.27
2022-10-24T03:54:31.765Z,4.70
2022-10-24T03:56:58.567Z,4.30
2022-10-24T03:59:25.430Z,4.30
2022-10-24T04:01:52.456Z,4.53
2022-10-24T04:04:19.423Z,4.80
2022-10-24T04:06:46.424Z,4.50
2022-10-24T04:09:13.300Z,4.30
2022-10-24T04:11:44.971Z,4.20
2022-10-24T04:14:11.860Z,4.37
2022-10-24T04:16:43.451Z,4.93
2022-10-24T04:19:12.393Z,4.03
2022-10-24T04:21:39.542Z,4.33
2022-10-24T04:24:09.045Z,5.00
2022-10-24T04:26:40.948Z,4.67
2022-10-24T04:29:10.306Z,4.27
2022-10-24T04:31:41.453Z,4.33
2022-10-24T04:34:08.326Z,4.27
2022-10-24T04:36:35.776Z,4.73
2022-10-24T04:39:05.189Z,3.93
2022-10-24T04:41:32.025Z,3.83
2022-10-24T04:43:58.902Z,5.00
2022-10-24T04:46:25.714Z,4.50
2022-10-24T04:48:53.540Z,4.63
2022-10-24T04:51:27.168Z,4.40
2022-10-24T04:53:56.086Z,5.00
2022-10-24T04:56:26.783Z,5.10
2022-10-24T04:58:57.961Z,4.80
2022-10-24T05:01:24.782Z,4.83
2022-10-24T05:03:51.782Z,5.00
2022-10-24T05:06:18.644Z,4.77
2022-10-24T05:08:47.801Z,4.40
2022-10-24T05:11:17.111Z,4.63
2022-10-24T05:13:44.004Z,4.73
2022-10-24T05:16:10.895Z,4.77
2022-10-24T05:18:37.703Z,4.50
2022-10-24T05:21:04.758Z,4.40
2022-10-24T05:23:31.569Z,4.57
2022-10-24T05:26:00.860Z,5.00
2022-10-24T05:28:27.735Z,4.70
2022-10-24T05:30:54.553Z,4.87
2022-10-24T05:33:23.883Z,4.87
2022-10-24T05:35:51.915Z,4.83
2022-10-24T05:38:19.308Z,4.43
2022-10-24T05:40:52.487Z,4.40
2022-10-24T05:43:26.386Z,4.10
2022-10-24T05:45:53.218Z,4.63
2022-10-24T05:48:22.370Z,4.90
2022-10-24T05:50:49.177Z,4.90
2022-10-24T05:53:16.071Z,5.40
2022-10-24T05:55:45.930Z,4.90
2022-10-24T05:58:12.788Z,5.00
2022-10-24T06:00:41.678Z,5.13
2022-10-24T06:03:12.814Z,5.47
2022-10-24T06:05:42.152Z,4.87
2022-10-24T06:08:11.722Z,5.07
2022-10-24T06:10:45.740Z,4.50
2022-10-24T06:13:17.992Z,4.70
2022-10-24T06:15:47.562Z,5.13
2022-10-24T06:18:16.490Z,5.07
2022-10-24T06:20:45.595Z,4.83
2022-10-24T06:23:12.432Z,5.07
2022-10-24T06:25:45.835Z,4.83
2022-10-24T06:28:15.133Z,4.90
2022-10-24T06:30:44.920Z,4.17
2022-10-24T06:33:11.806Z,4.50
2022-10-24T06:35:38.622Z,5.30
2022-10-24T06:38:07.970Z,4.90
2022-10-24T06:40:37.520Z,5.30
2022-10-24T06:43:06.842Z,5.63
2022-10-24T06:45:33.671Z,4.73
2022-10-24T06:48:00.514Z,5.73
2022-10-24T06:50:27.443Z,5.43
2022-10-24T06:52:57.385Z,5.20
2022-10-24T06:55:26.750Z,5.73
2022-10-24T06:57:54.028Z,4.90
2022-10-24T07:00:23.465Z,5.20
2022-10-24T07:02:50.476Z,4.60
2022-10-24T07:05:17.701Z,5.00
2022-10-24T07:07:45.151Z,4.80
2022-10-24T07:10:17.788Z,4.60
2022-10-24T07:12:44.958Z,5.53
2022-10-24T07:15:12.606Z,4.43
2022-10-24T07:17:43.940Z,4.80
2022-10-24T07:20:13.126Z,5.30
2022-10-24T07:22:40.387Z,5.17
2022-10-24T07:25:11.240Z,4.77
2022-10-24T07:27:40.624Z,4.47
2022-10-24T07:30:09.123Z,4.33
2022-10-24T07:32:38.009Z,4.40
2022-10-24T07:35:08.154Z,3.63
2022-10-24T07:37:37.487Z,4.27
2022-10-24T07:40:07.565Z,4.00
2022-10-24T07:42:34.432Z,4.23
2022-10-24T07:45:09.267Z,3.93
2022-10-24T07:47:38.617Z,3.90
2022-10-24T07:50:06.837Z,4.13
2022-10-24T07:52:33.782Z,4.47
2022-10-24T07:55:00.606Z,4.20
2022-10-24T07:57:30.562Z,3.80
2022-10-24T07:59:57.405Z,4.07
2022-10-24T08:02:24.382Z,3.80
2022-10-24T08:04:55.899Z,4.37
2022-10-24T08:07:25.254Z,3.70
2022-10-24T08:09:52.044Z,3.40
2022-10-24T08:12:19.116Z,4.20
2022-10-24T08:14:46.651Z,3.80
2022-10-24T08:17:13.665Z,3.80
2022-10-24T08:19:45.496Z,4.23
2022-10-24T08:22:12.636Z,3.83
2022-10-24T08:24:39.463Z,5.00
2022-10-24T08:27:08.573Z,3.53
2022-10-24T08:29:38.135Z,5.00
2022-10-24T08:32:07.719Z,3.57
2022-10-24T08:34:37.105Z,4.33
2022-10-24T08:37:07.125Z,3.93
2022-10-24T08:39:33.956Z,4.03
2022-10-24T08:42:09.913Z,4.00
2022-10-24T08:44:44.943Z,3.50
2022-10-24T08:50:29.210Z,3.57
2022-10-24T08:53:18.532Z,3.90
2022-10-24T08:55:53.507Z,3.60
2022-10-24T08:58:37.326Z,3.30
2022-10-24T09:01:13.770Z,3.50
2022-10-24T09:04:00.799Z,3.70
2022-10-24T09:06:34.251Z,3.60
2022-10-24T09:09:12.150Z,3.53
2022-10-24T09:12:03.552Z,3.40
2022-10-24T09:14:37.694Z,3.60
2022-10-24T09:17:35.001Z,3.47
2022-10-24T09:20:23.562Z,3.33
2022-10-24T09:22:50.623Z,3.10
2022-10-24T09:25:26.427Z,3.57
2022-10-24T09:27:56.133Z,3.70
2022-10-24T09:30:31.396Z,3.80
2022-10-24T09:33:13.170Z,2.90
2022-10-24T09:35:42.933Z,2.97
2022-10-24T09:38:34.733Z,2.90
2022-10-24T09:41:09.412Z,3.23
2022-10-24T09:43:48.315Z,3.00
2022-10-24T09:46:28.883Z,2.50
2022-10-24T09:49:02.721Z,2.80
2022-10-24T09:51:42.641Z,2.90
2022-10-24T09:54:18.521Z,3.47
2022-10-24T09:56:55.957Z,3.37
2022-10-24T09:59:44.451Z,3.50
2022-10-24T10:02:12.841Z,2.87
2022-10-24T10:04:41.221Z,2.50
2022-10-24T10:07:14.757Z,2.73
2022-10-24T10:09:56.692Z,2.80
2022-10-24T10:12:42.416Z,2.30
2022-10-24T10:15:33.044Z,2.47
2022-10-24T10:18:46.392Z,3.60
2022-10-24T10:21:25.938Z,2.90
2022-10-24T10:23:55.749Z,2.40
2022-10-24T10:26:42.779Z,2.47
2022-10-24T10:29:29.865Z,1.73
2022-10-24T10:32:41.391Z,2.50
2022-10-24T10:36:05.549Z,2.97
2022-10-24T10:39:08.086Z,2.73
2022-10-24T10:44:33.945Z,2.97
2022-10-24T10:47:03.960Z,2.57
2022-10-24T10:49:39.783Z,2.83
2022-10-24T10:52:11.647Z,2.43
2022-10-24T10:54:50.065Z,2.30
2022-10-24T10:57:42.073Z,2.30
2022-10-24T11:00:13.501Z,3.00
2022-10-24T11:03:09.646Z,2.00
2022-10-24T11:06:01.427Z,2.30
2022-10-24T11:08:43.186Z,1.90
2022-10-24T11:11:32.530Z,2.90
2022-10-24T11:14:28.774Z,2.30
2022-10-24T11:17:11.612Z,2.97
2022-10-24T11:19:41.420Z,2.60
2022-10-24T11:22:19.889Z,2.60
2022-10-24T11:25:04.564Z,2.00
2022-10-24T11:27:45.179Z,3.20
2022-10-24T11:30:15.607Z,2.43
2022-10-24T11:33:03.575Z,3.00
2022-10-24T11:35:34.508Z,2.37
2022-10-24T11:38:34.231Z,2.00
2022-10-24T11:41:34.508Z,3.43
2022-10-24T11:44:35.860Z,1.80
2022-10-24T11:47:31.261Z,2.10
2022-10-24T11:50:35.211Z,2.97
2022-10-24T11:53:29.382Z,1.77
2022-10-24T11:56:35.172Z,2.30
2022-10-24T11:59:08.701Z,2.30
2022-10-24T12:01:50.960Z,2.13
2022-10-24T12:04:20.655Z,2.50
2022-10-24T12:07:00.977Z,1.87
2022-10-24T12:09:45.815Z,2.27
2022-10-24T12:12:42.267Z,2.20
2022-10-24T12:15:40.475Z,2.27
2022-10-24T12:18:39.799Z,2.60
2022-10-24T12:21:17.097Z,2.37
2022-10-24T12:23:58.700Z,1.90
2022-10-24T12:26:27.842Z,2.73
2022-10-24T12:29:07.102Z,3.20
2022-10-24T12:31:38.477Z,1.90
2022-10-24T12:34:20.644Z,2.10
2022-10-24T12:37:09.471Z,1.60
2022-10-24T12:39:39.263Z,2.17
2022-10-24T12:42:15.646Z,2.00
2022-10-24T12:44:46.612Z,2.33
2022-10-24T12:47:28.513Z,3.50
2022-10-24T12:50:02.439Z,2.60
2022-10-24T12:52:32.272Z,2.50
2022-10-24T12:55:02.743Z,2.70
2022-10-24T12:57:37.259Z,2.17
2022-10-24T13:00:22.702Z,2.63
2022-10-24T13:03:15.714Z,2.30
2022-10-24T13:06:00.479Z,2.53
2022-10-24T13:09:03.013Z,2.50
2022-10-24T13:11:38.921Z,2.80
2022-10-24T13:14:20.043Z,2.70
2022-10-24T13:16:59.043Z,2.17
2022-10-24T13:19:27.239Z,1.97
2022-10-24T13:21:58.588Z,1.77
2022-10-24T13:24:34.824Z,2.40
2022-10-24T13:27:12.542Z,2.57
2022-10-24T13:29:39.737Z,1.93
2022-10-24T13:32:06.458Z,2.13
2022-10-24T13:34:54.037Z,2.33
2022-10-24T13:37:29.975Z,2.07
2022-10-24T13:40:21.536Z,2.07
2022-10-24T13:43:16.877Z,1.87
2022-10-24T13:45:52.407Z,1.70
2022-10-24T13:48:26.382Z,2.00
2022-10-24T13:51:49.418Z,2.10
2022-10-24T13:54:26.503Z,2.10
2022-10-24T13:56:55.973Z,2.90
2022-10-24T13:59:30.425Z,2.20
2022-10-24T14:02:04.023Z,2.00
2022-10-24T14:04:35.210Z,2.00
2022-10-24T14:07:07.694Z,1.50
2022-10-24T14:09:43.488Z,2.30
2022-10-24T14:12:25.979Z,2.50
2022-10-24T14:14:59.038Z,2.53
2022-10-24T14:17:30.706Z,2.17
2022-10-24T14:20:00.414Z,2.07
2022-10-24T14:22:40.619Z,2.50
2022-10-24T14:25:36.926Z,2.30
2022-10-24T14:28:20.287Z,2.00
2022-10-24T14:31:22.815Z,2.57
2022-10-24T14:33:53.595Z,2.03
2022-10-24T14:36:30.624Z,2.33
2022-10-24T14:39:01.020Z,2.27
2022-10-24T14:41:39.998Z,1.97
2022-10-24T14:44:13.828Z,2.30
2022-10-24T14:46:44.169Z,2.57
2022-10-24T14:49:29.735Z,2.07
2022-10-24T14:52:01.274Z,2.47
2022-10-24T14:54:33.868Z,2.20
2022-10-24T14:57:07.409Z,2.20
2022-10-24T14:59:44.727Z,2.30
2022-10-24T15:02:42.963Z,1.73
2022-10-24T15:05:24.737Z,2.30
2022-10-24T15:08:27.855Z,1.90
2022-10-24T15:11:31.351Z,2.50
2022-10-24T15:14:06.622Z,1.50
2022-10-24T15:16:40.681Z,2.60
2022-10-24T15:19:15.088Z,2.17
2022-10-24T15:21:50.043Z,3.20
2022-10-24T15:24:24.476Z,2.73
2022-10-24T15:27:14.044Z,2.70
2022-10-24T15:29:41.234Z,2.40
2022-10-24T15:32:11.387Z,2.87
2022-10-24T15:34:38.173Z,2.73
2022-10-24T15:37:07.859Z,2.73
2022-10-24T15:39:37.154Z,2.30
2022-10-24T15:42:08.508Z,3.13
2022-10-24T15:44:35.523Z,2.70
2022-10-24T15:47:02.427Z,2.73
2022-10-24T15:49:34.021Z,3.27
2022-10-24T15:52:00.912Z,2.27
2022-10-24T15:54:27.785Z,2.03
2022-10-24T15:56:55.298Z,3.67
2022-10-24T15:59:26.856Z,1.87
2022-10-24T16:02:00.379Z,2.50
2022-10-24T16:04:28.154Z,2.10
2022-10-24T16:06:57.403Z,2.43
2022-10-24T16:09:28.279Z,2.43
2022-10-24T16:11:57.858Z,2.50
2022-10-24T16:14:27.939Z,2.37
2022-10-24T16:16:57.736Z,2.43
2022-10-24T16:19:28.721Z,2.50
2022-10-24T16:21:58.694Z,2.97
2022-10-24T16:24:27.258Z,2.63
2022-10-24T16:26:54.492Z,2.53
2022-10-24T16:29:21.301Z,2.70
2022-10-24T16:31:49.129Z,2.97
2022-10-24T16:34:16.005Z,2.50
2022-10-24T16:36:43.000Z,2.47
2022-10-24T16:39:09.964Z,2.57
2022-10-24T16:41:37.257Z,3.27
2022-10-24T16:44:04.399Z,2.70
2022-10-24T16:46:31.545Z,3.40
2022-10-24T16:48:58.752Z,2.70
2022-10-24T16:51:32.971Z,3.50
2022-10-24T16:54:02.072Z,3.37
2022-10-24T16:56:30.171Z,2.80
2022-10-24T16:58:57.573Z,3.03
2022-10-24T17:01:27.807Z,3.40
2022-10-24T17:03:55.118Z,3.90
2022-10-24T17:06:21.959Z,3.10
2022-10-24T17:08:48.860Z,2.93
2022-10-24T17:11:43.169Z,3.80
2022-10-24T17:14:02.617Z,2.43
2022-10-24T17:16:34.105Z,3.30
2022-10-24T17:19:14.666Z,3.37
2022-10-24T17:21:50.693Z,2.57
2022-10-24T17:24:24.536Z,3.27
2022-10-24T17:26:52.872Z,3.67
2022-10-24T17:29:29.389Z,4.40
2022-10-24T17:31:59.817Z,3.60
2022-10-24T17:34:30.275Z,6.30
2022-10-24T17:37:31.695Z,4.73
2022-10-24T17:40:21.028Z,4.50
2022-10-24T17:42:48.645Z,4.07
2022-10-24T17:45:25.099Z,3.97
2022-10-24T17:47:52.661Z,3.83
2022-10-24T17:50:19.663Z,3.80
2022-10-24T17:52:51.296Z,4.10
2022-10-24T17:55:34.351Z,3.50
2022-10-24T17:58:10.554Z,4.50
2022-10-24T18:00:41.104Z,4.10
2022-10-24T18:03:08.705Z,4.40
2022-10-24T18:05:40.632Z,3.80
2022-10-24T18:08:11.860Z,4.00
2022-10-24T18:10:40.545Z,3.83
2022-10-24T18:13:08.424Z,4.00
2022-10-24T18:15:40.325Z,4.40
2022-10-24T18:18:07.690Z,4.80
2022-10-24T18:20:35.358Z,4.00
2022-10-24T18:23:02.317Z,4.70
2022-10-24T18:25:33.756Z,4.60
2022-10-24T18:28:03.081Z,4.70
2022-10-24T18:30:32.203Z,5.20
2022-10-24T18:32:59.237Z,5.27
2022-10-24T18:35:36.113Z,5.00
2022-10-24T18:38:05.641Z,6.97
2022-10-24T18:40:37.588Z,7.03
2022-10-24T18:43:12.040Z,5.33
2022-10-24T18:45:39.675Z,6.00
2022-10-24T18:48:29.868Z,6.40
2022-10-24T18:50:57.099Z,5.03
2022-10-24T18:53:28.083Z,4.43
2022-10-24T18:55:55.252Z,5.80
2022-10-24T18:58:22.303Z,4.80
2022-10-24T19:00:50.816Z,4.30
2022-10-24T19:03:39.858Z,4.70
2022-10-24T19:06:29.399Z,3.60
2022-10-24T19:08:58.565Z,4.27
2022-10-24T19:11:27.521Z,4.63
2022-10-24T19:13:54.510Z,3.90
2022-10-24T19:16:28.598Z,5.53
2022-10-24T19:19:02.295Z,4.90
2022-10-24T19:21:31.626Z,4.57
2022-10-24T19:24:01.821Z,4.73
2022-10-24T19:26:28.637Z,5.50
2022-10-24T19:28:55.447Z,3.70
2022-10-24T19:31:29.821Z,3.77
2022-10-24T19:33:58.033Z,3.03
2022-10-24T19:36:27.882Z,2.60
2022-10-24T19:38:56.030Z,2.83
2022-10-24T19:41:23.494Z,3.00
2022-10-24T19:43:53.425Z,2.83
2022-10-24T19:46:20.754Z,2.70
2022-10-24T19:48:51.141Z,2.93
2022-10-24T19:51:21.597Z,3.80
2022-10-24T19:53:49.758Z,3.20
2022-10-24T19:56:29.253Z,3.90
2022-10-24T19:58:56.470Z,3.17
2022-10-24T20:01:28.977Z,3.10
2022-10-24T20:03:56.783Z,3.17
2022-10-24T20:06:26.381Z,4.00
2022-10-24T20:08:53.454Z,4.17
2022-10-24T20:11:21.225Z,3.20
2022-10-24T20:13:49.858Z,4.10
2022-10-24T20:16:17.511Z,3.60
2022-10-24T20:18:44.688Z,3.40
2022-10-24T20:21:18.337Z,3.27
2022-10-24T20:23:47.724Z,3.67
2022-10-24T20:26:25.217Z,3.60
2022-10-24T20:28:54.690Z,2.60
2022-10-24T20:31:32.197Z,3.87
2022-10-24T20:34:07.803Z,3.87
2022-10-24T20:36:44.405Z,3.30
2022-10-24T20:39:20.815Z,3.50
2022-10-24T20:41:51.718Z,3.53
2022-10-24T20:44:21.228Z,3.83
2022-10-24T20:46:48.028Z,2.90
2022-10-24T20:49:17.100Z,3.30
2022-10-24T20:51:43.939Z,2.90
2022-10-24T20:54:13.494Z,3.03
2022-10-24T20:56:42.959Z,2.77
2022-10-24T20:59:15.087Z,3.30
2022-10-24T21:01:44.724Z,2.47
2022-10-24T21:04:13.663Z,2.87
2022-10-24T21:06:42.656Z,3.00
2022-10-24T21:09:09.751Z,3.00
2022-10-24T21:11:36.856Z,3.33
2022-10-24T21:14:09.203Z,3.27
2022-10-24T21:16:35.998Z,4.37
2022-10-24T21:19:05.929Z,2.97
2022-10-24T21:21:35.323Z,3.00
2022-10-24T21:24:05.815Z,3.37
2022-10-24T21:26:39.759Z,2.47
2022-10-24T21:31:57.625Z,2.73
2022-10-24T21:34:30.123Z,3.10
2022-10-24T21:37:02.656Z,2.57
2022-10-24T21:39:31.735Z,2.37
2022-10-24T21:42:05.113Z,2.90
2022-10-24T21:44:31.938Z,2.80
2022-10-24T21:46:58.769Z,2.63
2022-10-24T21:49:28.128Z,2.43
2022-10-24T21:51:55.084Z,2.53
2022-10-24T21:54:25.297Z,2.50
2022-10-24T21:56:56.698Z,2.60
2022-10-24T21:59:26.070Z,2.60
2022-10-24T22:01:55.499Z,2.73
2022-10-24T22:04:22.477Z,2.97
2022-10-24T22:06:49.752Z,2.47
2022-10-24T22:09:23.726Z,2.20
2022-10-24T22:11:50.771Z,2.47
2022-10-24T22:14:20.441Z,3.20
2022-10-24T22:16:49.960Z,2.77
2022-10-24T22:19:16.834Z,3.07
2022-10-24T22:21:47.437Z,2.53
2022-10-24T22:24:16.750Z,2.80
2022-10-24T22:26:46.308Z,2.50
2022-10-24T22:29:16.742Z,2.90
2022-10-24T22:31:44.197Z,2.60
2022-10-24T22:34:18.667Z,2.77
2022-10-24T22:37:15.792Z,2.47
2022-10-24T22:39:45.188Z,2.70
2022-10-24T22:42:19.276Z,2.47
2022-10-24T22:44:50.858Z,2.27
2022-10-24T22:47:57.279Z,2.60
2022-10-24T22:50:53.614Z,2.53
2022-10-24T22:53:30.959Z,3.03
2022-10-24T22:56:11.563Z,2.83
2022-10-24T22:58:40.970Z,4.03
2022-10-24T23:01:42.310Z,2.10
2022-10-24T23:04:47.329Z,3.00
2022-10-24T23:07:49.919Z,2.57
2022-10-24T23:10:22.343Z,2.70
2022-10-24T23:12:52.727Z,3.00
2022-10-24T23:15:20.868Z,2.67
2022-10-24T23:17:49.795Z,3.10
2022-10-24T23:20:40.221Z,2.60
2022-10-24T23:23:17.000Z,2.33
2022-10-24T23:26:03.221Z,2.80
2022-10-24T23:28:50.637Z,2.90
2022-10-24T23:31:17.793Z,3.07
2022-10-24T23:33:45.059Z,2.93
2022-10-24T23:36:25.051Z,3.23
2022-10-24T23:38:57.519Z,2.87
2022-10-24T23:41:24.697Z,3.10
2022-10-24T23:43:54.228Z,3.03
2022-10-24T23:46:30.635Z,2.20
2022-10-24T23:49:18.638Z,2.60
2022-10-24T23:52:07.704Z,2.77
2022-10-24T23:54:35.087Z,2.60
2022-10-24T23:57:04.801Z,3.03
2022-10-24T23:59:34.418Z,3.13
